North Chatham, New York
Current Conditions -  °F | °C
As of 10:54 PM on Saturday 22 Nov 2014 (Local Time) from KPSF Reporting Station
Moderate Rain Moderate Rain  
Wind Chill: 25°   Ceiling: 2700
Heat Index: 33°   Visibility: 4mi
Dew Point: 27°   Wind: 10mph
Humidity: 78%   Direction: 250°WSW
Pressure: 30.05"   Gusts: NA
Location:  42.47°N, 73.63°W
Report Text: KPSF 230354Z AUTO 25009KT 4SM RA BKN027 BKN034 OVC050 01/M03 A3005 RMK AO2 UPB0259E04B38E39RAB04 SLP187 P0002 T00061028 $
Loading
Personal Weather Stations






























Interactive Weather Map New forecast layout! Learn more

10-Day Weather Forecast

Advertisements
Track Severe Weather on mobile